Time;durP1;ratioP1;P1;durP2;ratioP2;P2;SDS_P1;SDS_P2;PMS_P1;PMS_P2;Temp;Humidity;BMP_temperature;BMP_pressure;BME280_temperature;BME280_humidity;BME280_pressure;Samples;Min_cycle;Max_cycle;Signal;HPM_P1;HPM_P2
2024/02/07 00:01:53;;;;;;;4.40;2.58;;;;;;;;;;5053412;28;20436;-64
2024/02/07 00:04:19;;;;;;;4.35;2.65;;;;;;;;;;5050883;28;20037;-62
2024/02/07 00:06:44;;;;;;;4.07;2.70;;;;;;;;;;5048921;28;20123;-61
2024/02/07 00:09:09;;;;;;;4.13;2.88;;;;;;;;;;5050200;28;20407;-65
2024/02/07 00:11:35;;;;;;;3.85;2.60;;;;;;;;;;5050144;28;20040;-63
2024/02/07 00:14:00;;;;;;;4.28;3.05;;;;;;;;;;5050161;28;20029;-62
2024/02/07 00:16:25;;;;;;;3.63;2.63;;;;;;;;;;5052061;28;20738;-60
2024/02/07 00:21:53;;;;;;;3.50;2.55;;;;;;;;;;5045768;28;20517;-65
2024/02/07 00:24:19;;;;;;;4.85;3.20;;;;;;;;;;5067666;28;20036;-60
2024/02/07 00:26:44;;;;;;;3.88;2.60;;;;;;;;;;5050499;28;20041;-61
2024/02/07 00:29:09;;;;;;;4.70;3.13;;;;;;;;;;5049649;28;20245;-64
2024/02/07 00:31:35;;;;;;;4.03;2.80;;;;;;;;;;5050172;28;20036;-65
2024/02/07 00:34:00;;;;;;;4.30;2.80;;;;;;;;;;5049429;28;20037;-60
2024/02/07 00:36:25;;;;;;;4.30;2.72;;;;;;;;;;5050058;28;20790;-64
2024/02/07 00:38:51;;;;;;;4.25;2.60;;;;;;;;;;5049125;28;20181;-64
2024/02/07 00:41:22;;;;;;;3.85;2.67;;;;;;;;;;5048345;28;20418;-61
2024/02/07 00:46:50;;;;;;;4.40;2.92;;;;;;;;;;5049815;28;20063;-64
2024/02/07 00:49:16;;;;;;;4.45;3.00;;;;;;;;;;5048810;28;20452;-65
2024/02/07 00:51:41;;;;;;;4.15;2.78;;;;;;;;;;5049470;28;20051;-65
2024/02/07 00:54:08;;;;;;;4.82;2.90;;;;;;;;;;5049454;28;20532;-63
2024/02/07 00:56:33;;;;;;;3.90;2.50;;;;;;;;;;5049325;28;20479;-65
2024/02/07 00:58:59;;;;;;;4.75;2.85;;;;;;;;;;5049125;28;20052;-66
2024/02/07 01:01:24;;;;;;;4.85;2.80;;;;;;;;;;5038139;28;20103;-64
2024/02/07 01:03:49;;;;;;;3.55;2.35;;;;;;;;;;5038850;28;20037;-63
2024/02/07 01:06:15;;;;;;;4.38;2.83;;;;;;;;;;5037124;28;20541;-65
2024/02/07 01:08:40;;;;;;;4.32;2.63;;;;;;;;;;5042197;28;20132;-63
2024/02/07 01:11:05;;;;;;;4.93;2.83;;;;;;;;;;5051908;28;20040;-64
2024/02/07 01:13:31;;;;;;;4.32;2.83;;;;;;;;;;5049684;28;20039;-62
2024/02/07 01:15:56;;;;;;;4.70;2.95;;;;;;;;;;5049402;28;20075;-63
2024/02/07 01:18:21;;;;;;;3.95;2.75;;;;;;;;;;5048595;28;20059;-63
2024/02/07 01:20:47;;;;;;;4.28;2.80;;;;;;;;;;5047644;28;20044;-64
2024/02/07 01:23:12;;;;;;;3.83;2.60;;;;;;;;;;5069845;28;20035;-62
2024/02/07 01:25:38;;;;;;;5.18;2.97;;;;;;;;;;5065695;28;20048;-60
2024/02/07 01:28:04;;;;;;;3.47;2.55;;;;;;;;;;5048391;28;20048;-60
2024/02/07 01:30:29;;;;;;;3.58;2.50;;;;;;;;;;5048131;28;20331;-65
2024/02/07 01:32:55;;;;;;;3.95;2.63;;;;;;;;;;5057106;28;20040;-60
2024/02/07 01:35:21;;;;;;;3.63;2.50;;;;;;;;;;5046142;28;20423;-63
2024/02/07 01:37:46;;;;;;;3.70;2.67;;;;;;;;;;5048857;28;20032;-62
2024/02/07 01:40:12;;;;;;;3.10;2.30;;;;;;;;;;5048280;28;20036;-60
2024/02/07 01:42:38;;;;;;;3.35;2.42;;;;;;;;;;5048736;28;20116;-59
2024/02/07 01:45:09;;;;;;;3.78;2.63;;;;;;;;;;5049170;28;20120;-61
2024/02/07 01:47:34;;;;;;;4.22;2.60;;;;;;;;;;5048029;28;20131;-60
2024/02/07 01:49:59;;;;;;;4.18;2.70;;;;;;;;;;5047567;28;20037;-63
2024/02/07 01:52:25;;;;;;;3.42;2.47;;;;;;;;;;5030654;28;20029;-59
2024/02/07 01:54:50;;;;;;;3.90;2.60;;;;;;;;;;5049011;28;20040;-61
2024/02/07 01:57:15;;;;;;;4.00;2.55;;;;;;;;;;5048684;28;20052;-61
2024/02/07 01:59:41;;;;;;;5.10;2.55;;;;;;;;;;5059329;28;20040;-63
2024/02/07 02:02:07;;;;;;;3.47;2.40;;;;;;;;;;5031200;28;20619;-60
2024/02/07 02:04:33;;;;;;;4.22;2.70;;;;;;;;;;5038659;28;20127;-59
2024/02/07 02:06:58;;;;;;;3.97;2.58;;;;;;;;;;5046838;28;20347;-65
2024/02/07 02:09:24;;;;;;;3.25;2.22;;;;;;;;;;5030561;28;20132;-63
2024/02/07 02:11:49;;;;;;;3.80;2.40;;;;;;;;;;5050425;28;20029;-64
2024/02/07 02:14:15;;;;;;;4.57;2.72;;;;;;;;;;5043267;28;20037;-61
2024/02/07 02:16:40;;;;;;;4.63;2.72;;;;;;;;;;5031007;28;20486;-62
2024/02/07 02:19:07;;;;;;;3.78;2.40;;;;;;;;;;5047199;28;20025;-62
2024/02/07 02:21:33;;;;;;;3.97;2.72;;;;;;;;;;5042215;28;20061;-62
2024/02/07 02:24:08;;;;;;;3.35;2.20;;;;;;;;;;5038153;28;20028;-64
2024/02/07 02:26:50;;;;;;;3.53;2.50;;;;;;;;;;5048989;28;20063;-63
2024/02/07 02:29:20;;;;;;;2.97;2.20;;;;;;;;;;5031713;28;20068;-65
2024/02/07 02:31:46;;;;;;;3.92;2.70;;;;;;;;;;5047450;28;20029;-66
2024/02/07 02:34:11;;;;;;;3.40;2.50;;;;;;;;;;5013506;28;20037;-62
2024/02/07 02:36:36;;;;;;;3.88;2.40;;;;;;;;;;5047688;28;20040;-63
2024/02/07 02:39:05;;;;;;;3.58;2.50;;;;;;;;;;5036779;28;20052;-64
2024/02/07 02:41:31;;;;;;;3.47;2.20;;;;;;;;;;5048228;28;20037;-64
2024/02/07 02:43:56;;;;;;;3.45;2.20;;;;;;;;;;5048681;28;20032;-64
2024/02/07 02:46:22;;;;;;;4.47;2.83;;;;;;;;;;5046799;28;20069;-59
2024/02/07 02:48:47;;;;;;;4.00;2.42;;;;;;;;;;5045718;28;20062;-62
2024/02/07 02:51:12;;;;;;;3.97;2.30;;;;;;;;;;5029093;28;20051;-59
2024/02/07 02:53:38;;;;;;;4.82;2.30;;;;;;;;;;5053498;28;20051;-58
2024/02/07 02:56:05;;;;;;;3.47;2.53;;;;;;;;;;5047779;28;20127;-64
2024/02/07 02:58:31;;;;;;;3.60;2.63;;;;;;;;;;5053349;28;20029;-64
2024/02/07 03:00:56;;;;;;;3.95;2.40;;;;;;;;;;5047454;28;20044;-61
2024/02/07 03:03:22;;;;;;;3.85;2.50;;;;;;;;;;5047480;28;20029;-59
2024/02/07 03:05:58;;;;;;;4.03;2.40;;;;;;;;;;5047690;28;20079;-60
2024/02/07 03:08:29;;;;;;;4.47;2.70;;;;;;;;;;5046415;28;20048;-62
2024/02/07 03:10:58;;;;;;;4.18;2.10;;;;;;;;;;5045954;28;20017;-62
2024/02/07 03:13:25;;;;;;;3.47;2.15;;;;;;;;;;5047454;28;21439;-65
2024/02/07 03:15:52;;;;;;;4.90;2.85;;;;;;;;;;5047402;28;20040;-60
2024/02/07 03:18:17;;;;;;;3.15;1.90;;;;;;;;;;5029039;28;20041;-60
2024/02/07 03:20:42;;;;;;;3.63;2.30;;;;;;;;;;5050278;28;20492;-62
2024/02/07 03:23:08;;;;;;;4.57;2.30;;;;;;;;;;5058046;28;20041;-64
2024/02/07 03:25:36;;;;;;;3.65;2.33;;;;;;;;;;5052490;28;20037;-66
2024/02/07 03:28:04;;;;;;;3.03;2.20;;;;;;;;;;5050715;28;20124;-62
2024/02/07 03:30:30;;;;;;;3.05;2.20;;;;;;;;;;5049652;28;20037;-61
2024/02/07 03:32:56;;;;;;;4.25;2.38;;;;;;;;;;5051134;28;20202;-65
2024/02/07 03:35:21;;;;;;;3.33;2.28;;;;;;;;;;5057162;28;20182;-64
2024/02/07 03:37:48;;;;;;;3.38;2.25;;;;;;;;;;5061479;28;20045;-63
2024/02/07 03:40:14;;;;;;;3.13;2.22;;;;;;;;;;5054259;28;20125;-64
2024/02/07 03:42:41;;;;;;;2.85;2.30;;;;;;;;;;5054445;28;20179;-64
2024/02/07 03:45:07;;;;;;;2.78;2.17;;;;;;;;;;5067496;28;20476;-65
2024/02/07 03:47:33;;;;;;;3.83;2.28;;;;;;;;;;5051173;28;20586;-65
2024/02/07 03:49:58;;;;;;;3.95;2.53;;;;;;;;;;5049936;28;20029;-65
2024/02/07 03:52:24;;;;;;;3.42;2.40;;;;;;;;;;5050423;28;20352;-66
2024/02/07 03:54:52;;;;;;;2.97;2.13;;;;;;;;;;5050322;28;20033;-63
2024/02/07 03:57:20;;;;;;;2.97;2.30;;;;;;;;;;5051061;28;20833;-64
2024/02/07 03:59:49;;;;;;;3.58;2.30;;;;;;;;;;5050380;28;20029;-67
2024/02/07 04:02:21;;;;;;;3.95;2.22;;;;;;;;;;5054316;28;20112;-65
2024/02/07 04:04:52;;;;;;;3.50;2.35;;;;;;;;;;5032673;28;20044;-68
2024/02/07 04:07:17;;;;;;;4.32;2.40;;;;;;;;;;5059708;28;20025;-63
2024/02/07 04:09:43;;;;;;;4.07;2.53;;;;;;;;;;5050392;28;20055;-65
2024/02/07 05:17:02;;;;;;;3.85;2.30;;;;;;;;;;5048556;28;20133;-64
2024/02/07 05:19:27;;;;;;;3.05;2.10;;;;;;;;;;5051991;28;20577;-64
2024/02/07 05:21:53;;;;;;;3.55;2.38;;;;;;;;;;5048177;28;20052;-65
2024/02/07 05:24:19;;;;;;;3.17;2.25;;;;;;;;;;5055505;28;21066;-67
2024/02/07 05:26:44;;;;;;;3.25;2.47;;;;;;;;;;5048642;28;20029;-64
2024/02/07 05:29:15;;;;;;;3.50;2.38;;;;;;;;;;5034634;28;20041;-59
2024/02/07 05:31:40;;;;;;;3.10;2.20;;;;;;;;;;5034653;28;20113;-66
2024/02/07 05:34:06;;;;;;;3.13;2.15;;;;;;;;;;5031312;28;20465;-60
2024/02/07 05:36:31;;;;;;;3.80;2.47;;;;;;;;;;5035867;28;20037;-59
2024/02/07 05:38:57;;;;;;;3.22;2.17;;;;;;;;;;5034344;28;20087;-61
2024/02/07 05:41:24;;;;;;;4.80;2.13;;;;;;;;;;5033161;28;20458;-59
2024/02/07 05:43:51;;;;;;;3.42;2.35;;;;;;;;;;5036456;28;20057;-59
2024/02/07 05:46:17;;;;;;;3.97;2.38;;;;;;;;;;5036612;28;20051;-62
2024/02/07 05:48:42;;;;;;;3.20;2.00;;;;;;;;;;5034931;28;20037;-58
2024/02/07 05:51:17;;;;;;;3.20;2.20;;;;;;;;;;5035773;28;20727;-62
2024/02/07 05:53:42;;;;;;;5.15;2.35;;;;;;;;;;5034233;28;20048;-61
2024/02/07 05:56:07;;;;;;;4.18;2.17;;;;;;;;;;5034686;28;20032;-65
2024/02/07 05:58:33;;;;;;;3.13;2.03;;;;;;;;;;5035867;28;20033;-62
2024/02/07 06:00:59;;;;;;;2.60;1.90;;;;;;;;;;5036068;28;20117;-64
2024/02/07 06:03:24;;;;;;;2.80;2.20;;;;;;;;;;5035579;28;20060;-62
2024/02/07 06:05:50;;;;;;;3.05;2.03;;;;;;;;;;5034718;28;20439;-62
2024/02/07 06:08:15;;;;;;;3.45;2.20;;;;;;;;;;5032686;28;20060;-66
2024/02/07 06:10:42;;;;;;;3.30;1.75;;;;;;;;;;5034721;28;20132;-63
2024/02/07 06:13:07;;;;;;;4.43;1.98;;;;;;;;;;5034892;28;20056;-63
2024/02/07 06:15:33;;;;;;;3.53;2.13;;;;;;;;;;5036521;28;20079;-62
2024/02/07 06:17:59;;;;;;;4.68;2.10;;;;;;;;;;5035733;28;20493;-60
2024/02/07 06:20:24;;;;;;;2.95;2.00;;;;;;;;;;5037141;28;20033;-60
2024/02/07 06:22:49;;;;;;;2.95;2.08;;;;;;;;;;5030712;28;20045;-58
2024/02/07 06:25:15;;;;;;;4.05;2.10;;;;;;;;;;5034649;28;20055;-60
2024/02/07 06:27:40;;;;;;;2.50;1.88;;;;;;;;;;5034837;28;20128;-59
2024/02/07 06:30:06;;;;;;;2.85;2.10;;;;;;;;;;5033900;28;20487;-61
2024/02/07 06:32:31;;;;;;;2.80;2.17;;;;;;;;;;5036063;28;20507;-58
2024/02/07 06:34:57;;;;;;;4.20;2.28;;;;;;;;;;5035168;28;21945;-59
2024/02/07 06:37:22;;;;;;;3.47;2.15;;;;;;;;;;5035240;28;20499;-61
2024/02/07 06:39:47;;;;;;;3.30;2.00;;;;;;;;;;5032992;28;20041;-60
2024/02/07 06:42:13;;;;;;;3.58;2.25;;;;;;;;;;5033188;28;20061;-61
2024/02/07 06:44:38;;;;;;;3.08;2.20;;;;;;;;;;5036307;28;20042;-61
2024/02/07 06:47:03;;;;;;;3.70;1.98;;;;;;;;;;5036072;28;20583;-58
2024/02/07 06:49:29;;;;;;;3.63;2.00;;;;;;;;;;5035590;28;20496;-60
2024/02/07 06:51:54;;;;;;;3.30;2.15;;;;;;;;;;5031344;28;20499;-60
2024/02/07 06:54:19;;;;;;;4.45;2.33;;;;;;;;;;5034719;28;20041;-62
2024/02/07 06:56:45;;;;;;;4.22;2.28;;;;;;;;;;5034998;28;20033;-61
2024/02/07 06:59:12;;;;;;;3.95;2.22;;;;;;;;;;5035600;28;20039;-61
2024/02/07 07:01:41;;;;;;;5.93;2.65;;;;;;;;;;5032826;28;20253;-62
2024/02/07 07:04:06;;;;;;;3.75;2.35;;;;;;;;;;5031477;28;20117;-61
2024/02/07 07:06:32;;;;;;;5.63;2.10;;;;;;;;;;5031736;28;20736;-60
2024/02/07 07:08:57;;;;;;;5.78;2.30;;;;;;;;;;5034750;28;20039;-60
2024/02/07 07:11:22;;;;;;;2.85;2.03;;;;;;;;;;5034342;28;20129;-61
2024/02/07 07:13:48;;;;;;;3.20;2.30;;;;;;;;;;5036002;28;20036;-60
2024/02/07 07:16:13;;;;;;;4.35;2.30;;;;;;;;;;5034153;28;20393;-61
2024/02/07 07:18:38;;;;;;;4.80;2.45;;;;;;;;;;5035220;28;20556;-60
2024/02/07 07:21:04;;;;;;;4.72;2.28;;;;;;;;;;5035255;28;20084;-60
2024/02/07 07:23:29;;;;;;;3.53;2.30;;;;;;;;;;5036055;28;20838;-60
2024/02/07 07:25:55;;;;;;;4.53;2.30;;;;;;;;;;5034515;28;20071;-61
2024/02/07 07:28:20;;;;;;;3.38;2.05;;;;;;;;;;5034713;28;20045;-61
2024/02/07 07:30:45;;;;;;;4.15;2.25;;;;;;;;;;5035760;28;20056;-61
2024/02/07 07:33:11;;;;;;;4.38;2.10;;;;;;;;;;5034048;28;20100;-60
2024/02/07 07:35:36;;;;;;;3.75;2.25;;;;;;;;;;5035766;28;20057;-60
2024/02/07 07:38:03;;;;;;;4.20;2.20;;;;;;;;;;5034515;28;20118;-61
2024/02/07 07:40:30;;;;;;;4.35;2.35;;;;;;;;;;5032914;28;20040;-60
2024/02/07 07:42:55;;;;;;;4.03;2.40;;;;;;;;;;5031315;28;20127;-61
2024/02/07 07:45:20;;;;;;;2.97;2.03;;;;;;;;;;5034732;28;20060;-65
2024/02/07 07:47:45;;;;;;;4.65;2.22;;;;;;;;;;5033785;28;20041;-60
2024/02/07 07:50:11;;;;;;;2.53;1.90;;;;;;;;;;5035431;28;20053;-60
2024/02/07 07:52:36;;;;;;;3.60;2.20;;;;;;;;;;5034140;28;20049;-62
2024/02/07 07:55:02;;;;;;;5.20;2.72;;;;;;;;;;5036637;28;20122;-60
2024/02/07 07:57:27;;;;;;;4.35;2.42;;;;;;;;;;5035846;28;20045;-60
2024/02/07 07:59:52;;;;;;;3.50;2.17;;;;;;;;;;5033839;28;20042;-60
2024/02/07 08:02:20;;;;;;;4.57;2.78;;;;;;;;;;5034349;28;20040;-60
2024/02/07 08:04:45;;;;;;;3.65;2.40;;;;;;;;;;5035421;28;20041;-60
2024/02/07 08:07:10;;;;;;;3.60;2.30;;;;;;;;;;5036340;28;20442;-60
2024/02/07 08:09:36;;;;;;;3.03;2.28;;;;;;;;;;5039947;28;20044;-60
2024/02/07 08:12:01;;;;;;;3.92;2.30;;;;;;;;;;5035943;28;20041;-60
2024/02/07 08:14:26;;;;;;;4.43;2.55;;;;;;;;;;5038354;28;20029;-61
2024/02/07 08:16:52;;;;;;;3.65;2.50;;;;;;;;;;5040438;28;20040;-60
2024/02/07 08:19:17;;;;;;;3.80;2.35;;;;;;;;;;5040709;28;20032;-60
2024/02/07 08:21:43;;;;;;;4.28;2.53;;;;;;;;;;5036562;28;20384;-60
2024/02/07 08:24:08;;;;;;;3.00;2.10;;;;;;;;;;5037182;28;20047;-60
2024/02/07 08:26:33;;;;;;;4.32;2.60;;;;;;;;;;5038714;28;20040;-60
2024/02/07 08:28:59;;;;;;;5.65;2.67;;;;;;;;;;5024692;28;20504;-60
2024/02/07 08:31:24;;;;;;;4.10;2.35;;;;;;;;;;5038819;28;20060;-61
2024/02/07 08:33:49;;;;;;;4.40;2.42;;;;;;;;;;5037814;28;20065;-60
2024/02/07 08:36:15;;;;;;;3.88;2.72;;;;;;;;;;5040517;28;20222;-60
2024/02/07 08:38:41;;;;;;;4.78;2.17;;;;;;;;;;5037572;28;20489;-61
2024/02/07 08:41:06;;;;;;;4.50;2.83;;;;;;;;;;5037632;28;20033;-60
2024/02/07 08:43:32;;;;;;;3.47;2.70;;;;;;;;;;5039529;28;20116;-61
2024/02/07 08:45:57;;;;;;;3.95;2.40;;;;;;;;;;5035105;28;20051;-59
2024/02/07 08:48:22;;;;;;;4.95;2.90;;;;;;;;;;5038242;28;20109;-60
2024/02/07 08:50:48;;;;;;;4.10;2.72;;;;;;;;;;5037830;28;20044;-61
2024/02/07 08:53:13;;;;;;;4.05;2.55;;;;;;;;;;5037497;28;20032;-59
2024/02/07 08:55:38;;;;;;;4.40;2.72;;;;;;;;;;5037628;28;20164;-62
2024/02/07 08:58:04;;;;;;;4.05;2.60;;;;;;;;;;5037943;28;20028;-60
2024/02/07 09:00:29;;;;;;;3.78;2.78;;;;;;;;;;5037482;28;21993;-61
2024/02/07 09:02:55;;;;;;;3.63;2.30;;;;;;;;;;5036738;28;20051;-61
2024/02/07 09:05:20;;;;;;;3.60;2.47;;;;;;;;;;5037613;28;20042;-60
2024/02/07 09:07:46;;;;;;;4.13;2.90;;;;;;;;;;5035299;28;20021;-60
2024/02/07 09:10:12;;;;;;;3.42;2.40;;;;;;;;;;5037139;28;20040;-60
2024/02/07 09:12:37;;;;;;;4.10;2.60;;;;;;;;;;5021953;28;20103;-60
2024/02/07 09:15:02;;;;;;;3.55;2.70;;;;;;;;;;5038497;28;20506;-60
2024/02/07 09:17:28;;;;;;;4.78;2.90;;;;;;;;;;5036389;28;20132;-60
2024/02/07 09:19:53;;;;;;;3.50;2.45;;;;;;;;;;5035761;28;20497;-60
2024/02/07 09:22:19;;;;;;;5.13;2.60;;;;;;;;;;5036142;28;20032;-60
2024/02/07 09:24:44;;;;;;;5.15;3.00;;;;;;;;;;5035462;28;20028;-61
2024/02/07 09:27:09;;;;;;;4.47;2.90;;;;;;;;;;5037191;28;20044;-60
2024/02/07 09:29:35;;;;;;;3.50;2.47;;;;;;;;;;5034545;28;20036;-60
2024/02/07 09:32:01;;;;;;;3.72;2.60;;;;;;;;;;5040087;28;20090;-60
2024/02/07 09:34:26;;;;;;;4.97;2.55;;;;;;;;;;5037114;28;22024;-60
2024/02/07 09:36:52;;;;;;;4.15;2.50;;;;;;;;;;5025302;28;20109;-61
2024/02/07 09:39:19;;;;;;;4.07;2.42;;;;;;;;;;5035988;28;20035;-61
2024/02/07 09:41:45;;;;;;;3.92;2.38;;;;;;;;;;5035009;28;20379;-60
2024/02/07 09:44:11;;;;;;;5.32;2.72;;;;;;;;;;5032399;28;20176;-60
2024/02/07 09:46:37;;;;;;;3.40;2.50;;;;;;;;;;5036191;28;20132;-61
2024/02/07 09:49:02;;;;;;;3.97;2.45;;;;;;;;;;5035440;28;20179;-60
2024/02/07 09:51:28;;;;;;;4.93;2.42;;;;;;;;;;5033925;28;20040;-60
2024/02/07 09:53:53;;;;;;;3.85;2.97;;;;;;;;;;5036005;28;20138;-60
2024/02/07 09:56:18;;;;;;;3.90;2.53;;;;;;;;;;5002444;28;20025;-61
2024/02/07 09:58:44;;;;;;;3.63;2.60;;;;;;;;;;5017904;28;20040;-61
2024/02/07 10:01:12;;;;;;;4.22;2.80;;;;;;;;;;5036518;28;20032;-61
2024/02/07 10:03:39;;;;;;;4.68;2.83;;;;;;;;;;5033558;28;20033;-60
2024/02/07 10:06:04;;;;;;;4.20;2.40;;;;;;;;;;5033744;28;20044;-61
2024/02/07 10:08:30;;;;;;;4.40;2.70;;;;;;;;;;5036744;28;20419;-61
2024/02/07 10:10:55;;;;;;;4.38;2.70;;;;;;;;;;5046058;28;20396;-60
2024/02/07 10:13:20;;;;;;;3.88;2.10;;;;;;;;;;5043361;28;20055;-61
2024/02/07 10:15:47;;;;;;;3.63;2.50;;;;;;;;;;5066485;28;20522;-61
2024/02/07 10:18:12;;;;;;;3.65;2.53;;;;;;;;;;5060853;28;20029;-60
2024/02/07 10:20:38;;;;;;;3.08;2.25;;;;;;;;;;5048717;28;20044;-61
2024/02/07 10:23:09;;;;;;;3.97;2.53;;;;;;;;;;5048523;28;20566;-61
2024/02/07 10:25:34;;;;;;;3.70;2.30;;;;;;;;;;5029698;28;20041;-61
2024/02/07 10:28:00;;;;;;;4.70;2.78;;;;;;;;;;5053310;28;20060;-61
2024/02/07 10:30:26;;;;;;;3.35;2.50;;;;;;;;;;5047337;28;20032;-61
2024/02/07 10:32:51;;;;;;;3.63;2.83;;;;;;;;;;5048159;28;20489;-61
2024/02/07 10:35:17;;;;;;;3.30;2.38;;;;;;;;;;5029441;28;20043;-61
2024/02/07 10:37:42;;;;;;;3.58;2.55;;;;;;;;;;5052008;28;20872;-60
2024/02/07 10:40:08;;;;;;;4.10;2.45;;;;;;;;;;5048037;28;20029;-60
2024/02/07 10:42:33;;;;;;;3.78;2.67;;;;;;;;;;5047632;28;20041;-60
2024/02/07 10:45:03;;;;;;;4.72;2.78;;;;;;;;;;5055498;28;20139;-60
2024/02/07 10:47:28;;;;;;;3.67;2.23;;;;;;;;;;5060498;28;20033;-60
2024/02/07 10:49:53;;;;;;;3.85;2.58;;;;;;;;;;5047617;28;20283;-60
2024/02/07 10:52:18;;;;;;;4.88;2.85;;;;;;;;;;5047392;28;20052;-60
2024/02/07 10:54:44;;;;;;;5.05;2.63;;;;;;;;;;5047771;28;20061;-61
2024/02/07 10:57:10;;;;;;;3.95;2.67;;;;;;;;;;5031088;28;20771;-60
2024/02/07 10:59:37;;;;;;;4.82;2.72;;;;;;;;;;5033988;28;20043;-61
2024/02/07 11:02:02;;;;;;;4.28;2.67;;;;;;;;;;5032659;28;20029;-60
2024/02/07 11:04:28;;;;;;;4.47;2.85;;;;;;;;;;5032049;28;20052;-60
2024/02/07 11:06:54;;;;;;;4.88;2.50;;;;;;;;;;5017976;28;20037;-60
2024/02/07 11:09:19;;;;;;;4.55;2.70;;;;;;;;;;5033975;28;20044;-60
2024/02/07 11:11:44;;;;;;;3.83;2.65;;;;;;;;;;5020293;28;20036;-59
2024/02/07 11:14:10;;;;;;;4.40;2.50;;;;;;;;;;5014392;28;20435;-60
2024/02/07 11:16:35;;;;;;;4.18;2.50;;;;;;;;;;5036520;28;21429;-60
2024/02/07 11:19:00;;;;;;;4.30;2.75;;;;;;;;;;5034918;28;20041;-62
2024/02/07 11:21:26;;;;;;;3.05;2.45;;;;;;;;;;5035152;28;20057;-61
2024/02/07 11:23:52;;;;;;;3.00;2.20;;;;;;;;;;5021295;28;20064;-62
2024/02/07 11:26:18;;;;;;;3.78;2.70;;;;;;;;;;5036050;28;20048;-60
2024/02/07 11:28:43;;;;;;;4.88;2.50;;;;;;;;;;5034849;28;20090;-60
2024/02/07 11:31:09;;;;;;;3.33;2.45;;;;;;;;;;5036152;28;20029;-61
2024/02/07 11:33:37;;;;;;;4.55;2.38;;;;;;;;;;5033489;28;20139;-61
2024/02/07 11:36:06;;;;;;;4.07;2.50;;;;;;;;;;5033019;28;20075;-60
2024/02/07 11:38:35;;;;;;;3.47;2.53;;;;;;;;;;5029048;28;20041;-61
2024/02/07 11:41:02;;;;;;;3.38;2.50;;;;;;;;;;5035319;28;21075;-61
2024/02/07 11:43:28;;;;;;;3.40;2.20;;;;;;;;;;5037657;28;20037;-61
2024/02/07 11:46:01;;;;;;;3.50;2.22;;;;;;;;;;5038632;28;20076;-61
2024/02/07 11:48:26;;;;;;;4.38;2.25;;;;;;;;;;5035352;28;20424;-62
2024/02/07 11:50:53;;;;;;;3.22;2.30;;;;;;;;;;5040007;28;20100;-59
2024/02/07 11:53:19;;;;;;;4.18;2.60;;;;;;;;;;5039512;28;20134;-62
2024/02/07 11:55:45;;;;;;;3.13;2.15;;;;;;;;;;5038060;28;20025;-61
2024/02/07 11:58:10;;;;;;;3.47;2.30;;;;;;;;;;5036127;28;20482;-60
2024/02/07 12:00:36;;;;;;;4.55;2.38;;;;;;;;;;5038983;28;20029;-60
2024/02/07 12:03:01;;;;;;;3.95;2.40;;;;;;;;;;5025026;28;20112;-60
2024/02/07 12:05:26;;;;;;;3.10;2.17;;;;;;;;;;5037747;28;20021;-60
2024/02/07 12:07:54;;;;;;;3.17;2.00;;;;;;;;;;5036487;28;20931;-61
2024/02/07 12:10:19;;;;;;;3.53;2.10;;;;;;;;;;5037018;28;20029;-60
2024/02/07 12:12:49;;;;;;;3.50;2.28;;;;;;;;;;5038956;28;20032;-59
2024/02/07 12:15:15;;;;;;;3.63;2.17;;;;;;;;;;5024241;28;20122;-60
2024/02/07 12:17:40;;;;;;;4.05;2.28;;;;;;;;;;5037413;28;20016;-60
2024/02/07 12:20:05;;;;;;;3.97;2.38;;;;;;;;;;5039492;28;20389;-60
2024/02/07 12:22:35;;;;;;;3.08;2.08;;;;;;;;;;5036892;28;20025;-60
2024/02/07 12:25:02;;;;;;;;;;;;;;;;;;5038510;28;20028;-60
2024/02/07 12:27:28;;;;;;;4.15;2.50;;;;;;;;;;5038309;28;20041;-62
2024/02/07 12:29:54;;;;;;;4.05;2.38;;;;;;;;;;5037615;28;20132;-62
2024/02/07 12:32:19;;;;;;;3.25;2.10;;;;;;;;;;5039767;28;20032;-61
2024/02/07 12:34:45;;;;;;;4.13;2.50;;;;;;;;;;5039435;28;20473;-61
2024/02/07 12:37:12;;;;;;;3.10;2.15;;;;;;;;;;5038926;28;20526;-60
2024/02/07 12:39:37;;;;;;;2.80;2.00;;;;;;;;;;5037473;28;20112;-60
2024/02/07 12:42:04;;;;;;;3.22;2.20;;;;;;;;;;5037881;28;20033;-60
2024/02/07 12:44:30;;;;;;;3.45;2.10;;;;;;;;;;5037169;28;20044;-61
2024/02/07 12:46:55;;;;;;;3.20;2.10;;;;;;;;;;5037315;28;20033;-60
2024/02/07 12:49:21;;;;;;;3.85;2.30;;;;;;;;;;5037531;28;20494;-60
2024/02/07 12:51:46;;;;;;;3.45;2.28;;;;;;;;;;5037812;28;20041;-61
2024/02/07 12:54:11;;;;;;;3.95;2.25;;;;;;;;;;5038578;28;20628;-61
2024/02/07 12:56:37;;;;;;;2.92;2.08;;;;;;;;;;5037550;28;20033;-60
2024/02/07 12:59:02;;;;;;;3.72;2.17;;;;;;;;;;5037335;28;20033;-60
2024/02/07 13:01:27;;;;;;;3.90;2.08;;;;;;;;;;5039956;28;20043;-60
2024/02/07 13:03:53;;;;;;;3.60;2.47;;;;;;;;;;5038712;28;20509;-60
2024/02/07 13:06:20;;;;;;;3.90;2.22;;;;;;;;;;5036207;28;20053;-60
2024/02/07 13:08:46;;;;;;;3.53;2.17;;;;;;;;;;5043193;28;20040;-60
2024/02/07 13:11:11;;;;;;;3.05;2.05;;;;;;;;;;5048683;28;20036;-61
2024/02/07 13:13:37;;;;;;;4.43;2.33;;;;;;;;;;5051053;28;20114;-59
2024/02/07 13:16:02;;;;;;;3.53;2.10;;;;;;;;;;5049069;28;20052;-60
2024/02/07 13:18:27;;;;;;;4.22;2.28;;;;;;;;;;5054898;28;20075;-60
2024/02/07 13:20:53;;;;;;;4.00;2.00;;;;;;;;;;5053377;28;20041;-59
2024/02/07 13:23:28;;;;;;;2.97;1.98;;;;;;;;;;5049533;28;20425;-60
2024/02/07 13:25:54;;;;;;;3.00;2.08;;;;;;;;;;5032625;28;20051;-60
2024/02/07 13:28:19;;;;;;;3.47;2.22;;;;;;;;;;5048731;28;20116;-60
2024/02/07 13:30:44;;;;;;;4.10;2.10;;;;;;;;;;5048668;28;20036;-62
2024/02/07 13:33:10;;;;;;;3.92;2.20;;;;;;;;;;5034522;28;20105;-61
2024/02/07 13:35:35;;;;;;;2.85;1.88;;;;;;;;;;5048926;28;20060;-62
2024/02/07 13:38:02;;;;;;;4.20;2.08;;;;;;;;;;5055429;28;20089;-62
2024/02/07 13:40:27;;;;;;;3.38;1.90;;;;;;;;;;5048721;28;20395;-60
2024/02/07 13:42:53;;;;;;;3.10;2.00;;;;;;;;;;5048684;28;20044;-61
2024/02/07 13:45:22;;;;;;;5.00;2.28;;;;;;;;;;5048808;28;20041;-61
2024/02/07 13:47:47;;;;;;;2.93;2.17;;;;;;;;;;5049235;28;20029;-63
2024/02/07 13:50:13;;;;;;;3.28;2.13;;;;;;;;;;5048416;28;20040;-62
2024/02/07 13:52:38;;;;;;;6.22;2.38;;;;;;;;;;5053153;28;20141;-61
2024/02/07 13:55:04;;;;;;;5.05;2.33;;;;;;;;;;5047530;28;20507;-62
2024/02/07 13:57:29;;;;;;;4.07;2.10;;;;;;;;;;5048454;28;20025;-62
2024/02/07 13:59:54;;;;;;;6.75;2.60;;;;;;;;;;5049143;28;20091;-63
2024/02/07 14:02:20;;;;;;;7.30;2.65;;;;;;;;;;5053511;28;20498;-63
2024/02/07 14:04:45;;;;;;;7.40;2.50;;;;;;;;;;5047407;28;20033;-62
2024/02/07 14:07:10;;;;;;;5.75;2.80;;;;;;;;;;5040100;28;20029;-62
2024/02/07 14:09:35;;;;;;;4.82;2.38;;;;;;;;;;5025350;28;20086;-61
2024/02/07 14:12:01;;;;;;;8.20;2.53;;;;;;;;;;5043734;28;20114;-63
2024/02/07 14:14:26;;;;;;;5.53;2.53;;;;;;;;;;5047021;28;20037;-63
2024/02/07 14:16:51;;;;;;;8.70;2.50;;;;;;;;;;5046811;28;20506;-62
2024/02/07 14:19:18;;;;;;;5.43;2.67;;;;;;;;;;5047739;28;20041;-63
2024/02/07 14:21:43;;;;;;;10.50;2.90;;;;;;;;;;5048368;28;20118;-62
2024/02/07 14:24:09;;;;;;;5.25;2.63;;;;;;;;;;5046802;28;20518;-62
2024/02/07 14:26:34;;;;;;;8.18;3.03;;;;;;;;;;5048260;28;20048;-63
2024/02/07 14:28:59;;;;;;;4.97;2.65;;;;;;;;;;5046150;28;20032;-62
2024/02/07 14:31:25;;;;;;;12.20;2.97;;;;;;;;;;5045984;28;20020;-61
2024/02/07 14:33:50;;;;;;;5.22;2.70;;;;;;;;;;5047455;28;20067;-63
2024/02/07 14:36:15;;;;;;;5.47;2.80;;;;;;;;;;5046461;28;20029;-64
2024/02/07 14:38:41;;;;;;;4.75;2.78;;;;;;;;;;5046357;28;20029;-64
2024/02/07 14:41:06;;;;;;;7.93;2.75;;;;;;;;;;5046805;28;20063;-64
2024/02/07 14:43:31;;;;;;;6.47;2.70;;;;;;;;;;5040758;28;20526;-62
2024/02/07 14:45:57;;;;;;;5.65;2.75;;;;;;;;;;5045974;28;20036;-61
2024/02/07 14:48:22;;;;;;;8.82;3.17;;;;;;;;;;5046271;28;20033;-61
2024/02/07 14:50:47;;;;;;;5.88;2.70;;;;;;;;;;5045839;28;20552;-61
2024/02/07 14:53:13;;;;;;;5.00;2.72;;;;;;;;;;5047885;28;20037;-61
2024/02/07 14:55:40;;;;;;;5.60;2.50;;;;;;;;;;5046486;28;20037;-62
2024/02/07 14:58:05;;;;;;;4.85;2.65;;;;;;;;;;5046661;28;20524;-62
2024/02/07 15:00:30;;;;;;;8.55;2.90;;;;;;;;;;5054982;28;20041;-63
2024/02/07 15:02:56;;;;;;;5.88;2.70;;;;;;;;;;5048492;28;20025;-63
2024/02/07 15:05:21;;;;;;;5.22;2.92;;;;;;;;;;5047370;28;20470;-62
2024/02/07 15:07:49;;;;;;;6.05;2.90;;;;;;;;;;5045860;28;20045;-63
2024/02/07 15:10:15;;;;;;;5.85;3.03;;;;;;;;;;5024903;28;20556;-63
2024/02/07 15:12:40;;;;;;;5.32;2.67;;;;;;;;;;5058015;28;20041;-62
2024/02/07 15:15:06;;;;;;;4.85;2.88;;;;;;;;;;5045988;28;20033;-62
2024/02/07 15:17:31;;;;;;;7.25;3.15;;;;;;;;;;5042399;28;20082;-63
2024/02/07 15:19:56;;;;;;;6.07;3.00;;;;;;;;;;5048902;28;20037;-62
2024/02/07 15:22:22;;;;;;;5.43;2.83;;;;;;;;;;5047358;28;20523;-61
2024/02/07 15:24:47;;;;;;;7.07;3.00;;;;;;;;;;5046829;28;20283;-63
2024/02/07 15:27:12;;;;;;;5.90;2.93;;;;;;;;;;5046825;28;20291;-64
2024/02/07 15:29:37;;;;;;;6.33;3.00;;;;;;;;;;5053822;28;20283;-63
2024/02/07 15:32:03;;;;;;;7.17;3.07;;;;;;;;;;5046324;28;20287;-63
2024/02/07 15:34:28;;;;;;;6.15;3.38;;;;;;;;;;5048000;28;20885;-62
2024/02/07 15:36:53;;;;;;;5.90;3.20;;;;;;;;;;5045013;28;20449;-62
2024/02/07 15:39:18;;;;;;;4.57;2.90;;;;;;;;;;5047493;28;20621;-62
2024/02/07 15:41:44;;;;;;;6.15;3.50;;;;;;;;;;5046269;28;20298;-62
2024/02/07 15:44:09;;;;;;;7.95;3.63;;;;;;;;;;5047752;28;20509;-63
2024/02/07 15:46:34;;;;;;;7.00;3.25;;;;;;;;;;5046423;28;20072;-62